createdAt,value
2018-02-19T00:00:49.554Z,81.60
2018-02-19T00:03:17.668Z,81.40
2018-02-19T00:05:45.804Z,81.20
2018-02-19T00:08:13.933Z,81.30
2018-02-19T00:10:42.089Z,81.30
2018-02-19T00:13:10.213Z,81.50
2018-02-19T00:15:38.370Z,80.80
2018-02-19T00:18:07.256Z,82.40
2018-02-19T00:20:36.164Z,82.50
2018-02-19T00:23:04.298Z,82.30
2018-02-19T00:25:32.445Z,81.60
2018-02-19T00:28:00.566Z,82.00
2018-02-19T00:30:29.478Z,81.90
2018-02-19T00:32:57.597Z,81.70
2018-02-19T00:35:25.734Z,81.70
2018-02-19T00:37:53.848Z,81.60
2018-02-19T00:40:21.981Z,82.20
2018-02-19T00:42:50.138Z,82.00
2018-02-19T00:45:19.038Z,81.60
2018-02-19T00:47:47.143Z,81.60
2018-02-19T00:50:15.279Z,81.60
2018-02-19T00:52:43.396Z,81.70
2018-02-19T00:55:11.963Z,82.50
2018-02-19T00:57:40.082Z,83.40
2018-02-19T01:00:08.997Z,83.20
2018-02-19T01:02:37.130Z,83.30
2018-02-19T01:05:05.317Z,83.10
2018-02-19T01:07:33.423Z,83.00
2018-02-19T01:10:01.570Z,82.60
2018-02-19T01:12:30.740Z,82.60
2018-02-19T01:15:00.234Z,82.60
2018-02-19T01:17:28.344Z,82.20
2018-02-19T01:19:56.485Z,82.00
2018-02-19T01:22:24.601Z,81.70
2018-02-19T01:24:53.499Z,82.50
2018-02-19T01:27:21.625Z,82.40
2018-02-19T01:29:49.763Z,82.50
2018-02-19T01:32:17.872Z,82.10
2018-02-19T01:34:46.007Z,81.90
2018-02-19T01:37:14.929Z,82.20
2018-02-19T01:39:43.064Z,82.20
2018-02-19T01:42:11.185Z,82.30
2018-02-19T01:44:39.331Z,82.20
2018-02-19T01:47:07.449Z,82.00
2018-02-19T01:49:35.592Z,82.50
2018-02-19T01:52:03.760Z,80.70
2018-02-19T01:54:31.909Z,81.00
2018-02-19T01:57:00.036Z,81.30
2018-02-19T01:59:29.032Z,81.80
2018-02-19T02:01:57.160Z,81.90
2018-02-19T02:04:25.315Z,82.40
2018-02-19T02:06:54.192Z,82.30
2018-02-19T02:09:23.100Z,81.90
2018-02-19T02:11:51.436Z,81.80
2018-02-19T02:14:19.590Z,81.30
2018-02-19T02:16:47.705Z,82.00
2018-02-19T02:19:18.531Z,81.40
2018-02-19T02:21:46.678Z,81.40
2018-02-19T02:24:14.794Z,81.50
2018-02-19T02:26:43.702Z,81.20
2018-02-19T02:29:11.819Z,81.20
2018-02-19T02:31:39.953Z,81.90
2018-02-19T02:34:08.080Z,82.40
2018-02-19T02:36:36.243Z,82.60
2018-02-19T02:39:04.370Z,82.70
2018-02-19T02:41:32.511Z,82.80
2018-02-19T02:44:00.625Z,83.10
2018-02-19T02:46:28.776Z,82.90
2018-02-19T02:48:57.669Z,83.10
2018-02-19T02:51:26.588Z,82.50
2018-02-19T02:53:54.708Z,82.50
2018-02-19T02:56:22.845Z,83.00
2018-02-19T02:58:50.966Z,82.70
2018-02-19T03:01:20.490Z,82.20
2018-02-19T03:03:48.611Z,82.80
2018-02-19T03:06:16.753Z,82.40
2018-02-19T03:08:44.864Z,82.30
2018-02-19T03:11:13.014Z,83.00
2018-02-19T03:13:41.130Z,82.90
2018-02-19T03:16:09.278Z,82.70
2018-02-19T03:18:37.394Z,82.60
2018-02-19T03:21:06.296Z,82.30
2018-02-19T03:23:34.840Z,82.30
2018-02-19T03:26:05.018Z,83.30
2018-02-19T03:28:33.131Z,83.30
2018-02-19T03:31:01.300Z,83.50
2018-02-19T03:33:29.429Z,83.50
2018-02-19T03:35:57.564Z,82.70
2018-02-19T03:38:25.702Z,83.00
2018-02-19T03:40:53.837Z,83.40
2018-02-19T03:43:23.523Z,83.50
2018-02-19T03:45:51.697Z,83.50
2018-02-19T03:48:19.820Z,83.50
2018-02-19T03:50:47.965Z,83.50
2018-02-19T03:53:16.835Z,82.90
2018-02-19T03:55:44.981Z,82.90
2018-02-19T03:58:13.095Z,82.80
2018-02-19T04:00:41.994Z,82.00
2018-02-19T04:03:10.880Z,82.20
2018-02-19T04:05:39.804Z,82.50
2018-02-19T04:08:07.927Z,82.40
2018-02-19T04:10:36.075Z,83.10
2018-02-19T04:13:04.189Z,82.90
2018-02-19T04:15:33.104Z,82.90
2018-02-19T04:18:01.225Z,82.90
2018-02-19T04:20:29.368Z,83.00
2018-02-19T04:22:57.480Z,83.20
2018-02-19T04:25:25.636Z,82.20
2018-02-19T04:27:56.708Z,82.30
2018-02-19T04:30:24.851Z,82.50
2018-02-19T04:32:53.488Z,82.50
2018-02-19T04:35:21.629Z,82.00
2018-02-19T04:37:49.746Z,82.60
2018-02-19T04:40:17.884Z,83.10
2018-02-19T04:42:46.454Z,82.20
2018-02-19T04:45:15.168Z,82.30
2018-02-19T04:47:44.058Z,83.40
2018-02-19T04:50:14.753Z,83.00
2018-02-19T04:52:42.921Z,82.80
2018-02-19T04:55:11.026Z,84.10
2018-02-19T04:57:39.160Z,83.80
2018-02-19T05:00:07.280Z,83.80
2018-02-19T05:02:36.758Z,83.50
2018-02-19T05:05:04.870Z,83.30
2018-02-19T05:07:34.235Z,82.90
2018-02-19T05:10:02.348Z,82.90
2018-02-19T05:12:30.529Z,83.00
2018-02-19T05:14:58.639Z,83.20
2018-02-19T05:17:27.688Z,83.60
2018-02-19T05:19:56.570Z,84.60
2018-02-19T05:22:25.920Z,84.60
2018-02-19T05:24:54.042Z,84.70
2018-02-19T05:27:22.947Z,84.80
2018-02-19T05:29:51.837Z,85.30
2018-02-19T05:32:19.985Z,84.60
2018-02-19T05:34:50.541Z,84.80
2018-02-19T05:37:18.704Z,84.60
2018-02-19T05:39:47.592Z,84.70
2018-02-19T05:42:16.497Z,84.50
2018-02-19T05:44:44.612Z,84.50
2018-02-19T05:47:12.776Z,84.50
2018-02-19T05:49:40.897Z,84.60
2018-02-19T05:52:09.041Z,84.40
2018-02-19T05:54:37.156Z,84.10
2018-02-19T05:57:06.066Z,84.00
2018-02-19T05:59:34.202Z,83.90
2018-02-19T06:02:02.346Z,83.70
2018-02-19T06:04:30.480Z,83.30
2018-02-19T06:06:58.637Z,82.70
2018-02-19T06:09:27.526Z,83.50
2018-02-19T06:11:55.671Z,83.40
2018-02-19T06:14:23.784Z,83.80
2018-02-19T06:16:52.698Z,83.10
2018-02-19T06:19:20.818Z,83.10
2018-02-19T06:21:49.080Z,83.10
2018-02-19T06:24:17.185Z,82.50
2018-02-19T06:26:45.332Z,82.00
2018-02-19T06:29:15.204Z,82.00
2018-02-19T06:31:43.376Z,81.70
2018-02-19T06:34:11.484Z,81.90
2018-02-19T06:36:39.623Z,81.90
2018-02-19T06:39:07.737Z,81.80
2018-02-19T06:41:35.954Z,82.70
2018-02-19T06:44:04.213Z,83.30
2018-02-19T06:46:32.345Z,83.10
2018-02-19T06:49:00.466Z,83.10
2018-02-19T06:51:28.606Z,82.80
2018-02-19T06:53:56.718Z,82.50
2018-02-19T06:56:25.307Z,81.70
2018-02-19T06:58:54.192Z,81.10
2018-02-19T07:01:23.123Z,81.30
2018-02-19T07:03:51.238Z,81.20
2018-02-19T07:06:19.441Z,81.20
2018-02-19T07:08:48.328Z,82.80
2018-02-19T07:11:17.247Z,82.40
2018-02-19T07:13:45.355Z,82.30
2018-02-19T07:16:14.135Z,82.20
2018-02-19T07:18:42.521Z,82.80
2018-02-19T07:21:10.760Z,83.40
2018-02-19T07:23:38.990Z,83.80
2018-02-19T07:26:07.896Z,82.80
2018-02-19T07:28:36.037Z,82.70
2018-02-19T07:31:04.152Z,82.40
2018-02-19T07:33:33.072Z,81.60
2018-02-19T07:36:01.189Z,81.10
2018-02-19T07:38:29.341Z,80.40
2018-02-19T07:40:57.473Z,80.30
2018-02-19T07:43:26.423Z,80.50
2018-02-19T07:45:54.552Z,80.50
2018-02-19T07:48:22.691Z,79.70
2018-02-19T07:50:50.816Z,79.60
2018-02-19T07:53:18.963Z,79.70
2018-02-19T07:55:47.844Z,79.80
2018-02-19T07:58:16.740Z,79.70
2018-02-19T08:00:45.696Z,79.30
2018-02-19T08:03:13.847Z,79.20
2018-02-19T08:05:41.976Z,78.60
2018-02-19T08:08:10.880Z,78.70
2018-02-19T08:10:39.854Z,77.90
2018-02-19T08:13:07.988Z,77.80
2018-02-19T08:15:36.105Z,77.80
2018-02-19T08:18:05.016Z,77.10
2018-02-19T08:20:33.158Z,77.10
2018-02-19T08:23:01.309Z,76.90
2018-02-19T08:25:29.414Z,76.60
2018-02-19T08:27:58.324Z,76.80
2018-02-19T08:30:26.435Z,76.80
2018-02-19T08:32:54.574Z,76.30
2018-02-19T08:35:22.687Z,76.50
2018-02-19T08:37:51.368Z,76.10
2018-02-19T08:40:19.484Z,75.60
2018-02-19T08:42:48.412Z,73.90
2018-02-19T08:45:16.536Z,73.90
2018-02-19T08:47:44.691Z,73.80
2018-02-19T08:50:12.804Z,72.90
2018-02-19T08:52:41.713Z,71.40
2018-02-19T08:55:09.828Z,71.30
2018-02-19T08:57:37.968Z,71.40
2018-02-19T09:00:06.092Z,70.50
2018-02-19T09:02:35.840Z,69.70
2018-02-19T09:05:04.002Z,69.60
2018-02-19T09:07:32.934Z,70.40
2018-02-19T09:10:01.046Z,70.40
2018-02-19T09:12:29.190Z,70.30
2018-02-19T09:14:57.305Z,70.30
2018-02-19T09:17:25.521Z,70.10
2018-02-19T09:19:53.660Z,70.30
2018-02-19T09:22:22.569Z,70.70
2018-02-19T09:24:50.688Z,70.70
2018-02-19T09:27:18.845Z,70.70
2018-02-19T09:29:47.746Z,70.80
2018-02-19T09:32:15.878Z,71.40
2018-02-19T09:34:43.992Z,70.70
2018-02-19T09:37:12.134Z,69.30
2018-02-19T09:39:40.244Z,69.30
2018-02-19T09:42:08.388Z,69.60
2018-02-19T09:44:36.633Z,69.40
2018-02-19T09:47:04.783Z,69.20
2018-02-19T09:49:34.105Z,69.00
2018-02-19T09:52:03.014Z,68.60
2018-02-19T09:54:32.269Z,68.50
2018-02-19T09:57:00.397Z,69.20
2018-02-19T09:59:28.534Z,69.40
2018-02-19T10:01:57.419Z,67.10
2018-02-19T10:04:25.577Z,67.10
2018-02-19T10:06:53.696Z,66.80
2018-02-19T10:09:21.846Z,66.00
2018-02-19T10:11:50.737Z,66.10
2018-02-19T10:14:19.646Z,64.70
2018-02-19T10:16:47.771Z,64.60
2018-02-19T10:19:16.677Z,63.70
2018-02-19T10:21:44.856Z,64.40
2018-02-19T10:24:13.051Z,63.70
2018-02-19T10:26:41.928Z,64.10
2018-02-19T10:29:10.072Z,64.10
2018-02-19T10:31:38.538Z,61.40
2018-02-19T10:34:06.770Z,60.80
2018-02-19T10:36:35.681Z,62.40
2018-02-19T10:39:03.833Z,62.30
2018-02-19T10:41:32.732Z,61.40
2018-02-19T10:44:01.635Z,61.70
2018-02-19T10:46:29.776Z,61.70
2018-02-19T10:48:57.923Z,61.70
2018-02-19T10:51:26.046Z,62.30
2018-02-19T10:53:54.953Z,63.50
2018-02-19T10:56:23.107Z,63.50
2018-02-19T10:58:52.025Z,64.10
2018-02-19T11:01:20.144Z,64.10
2018-02-19T11:03:48.293Z,63.80
2018-02-19T11:06:16.419Z,62.80
2018-02-19T11:08:45.325Z,61.80
2018-02-19T11:11:13.440Z,61.70
2018-02-19T11:13:41.592Z,62.60
2018-02-19T11:16:09.712Z,61.70
2018-02-19T11:18:38.369Z,62.40
2018-02-19T11:21:06.496Z,61.80
2018-02-19T11:23:34.641Z,62.00
2018-02-19T11:26:02.760Z,63.20
2018-02-19T11:28:30.918Z,62.40
2018-02-19T11:30:59.032Z,62.40
2018-02-19T11:33:27.174Z,62.60
2018-02-19T11:35:55.345Z,62.30
2018-02-19T11:38:24.221Z,60.80
2018-02-19T11:40:53.473Z,61.10
2018-02-19T11:43:21.613Z,61.80
2018-02-19T11:45:49.733Z,60.50
2018-02-19T11:48:17.870Z,60.60
2018-02-19T11:50:45.991Z,62.20
2018-02-19T11:53:14.138Z,63.10
2018-02-19T11:55:42.265Z,61.10
2018-02-19T11:58:11.178Z,60.40
2018-02-19T12:00:39.285Z,60.30
2018-02-19T12:03:07.426Z,60.20
2018-02-19T12:05:35.548Z,62.30
2018-02-19T12:08:03.690Z,61.90
2018-02-19T12:10:31.836Z,61.80
2018-02-19T12:12:59.985Z,61.40
2018-02-19T12:15:28.868Z,61.50
2018-02-19T12:17:57.008Z,61.50
2018-02-19T12:20:25.896Z,61.60
2018-02-19T12:22:54.038Z,61.70
2018-02-19T12:25:22.185Z,61.60
2018-02-19T12:27:51.256Z,62.40
2018-02-19T12:30:20.036Z,62.30
2018-02-19T12:32:48.147Z,62.30
2018-02-19T12:35:17.071Z,63.10
2018-02-19T12:37:45.181Z,63.00
2018-02-19T12:40:13.334Z,61.70
2018-02-19T12:42:41.449Z,62.90
2018-02-19T12:45:10.404Z,61.70
2018-02-19T12:47:38.504Z,61.60
2018-02-19T12:50:06.650Z,61.30
2018-02-19T12:52:34.768Z,61.00
2018-02-19T12:55:03.680Z,63.50
2018-02-19T12:57:31.796Z,63.50
2018-02-19T12:59:59.940Z,63.20
2018-02-19T13:02:28.052Z,62.80
2018-02-19T13:04:56.204Z,60.60
2018-02-19T13:07:25.240Z,60.90
2018-02-19T13:09:54.160Z,61.30
2018-02-19T13:12:22.329Z,61.00
2018-02-19T13:14:50.471Z,61.80
2018-02-19T13:17:18.606Z,62.50
2018-02-19T13:19:47.390Z,62.90
2018-02-19T13:22:16.251Z,63.00
2018-02-19T13:24:45.154Z,63.80
2018-02-19T13:27:13.273Z,63.80
2018-02-19T13:29:41.430Z,64.30
2018-02-19T13:32:09.573Z,64.70
2018-02-19T13:34:37.746Z,64.20
2018-02-19T13:37:06.531Z,64.30
2018-02-19T13:42:15.420Z,64.20
2018-02-19T13:44:45.579Z,64.50
2018-02-19T13:47:14.467Z,65.90
2018-02-19T13:49:42.644Z,65.80
2018-02-19T13:52:11.530Z,66.10
2018-02-19T13:54:39.665Z,66.10
2018-02-19T13:57:07.784Z,66.20
2018-02-19T13:59:36.693Z,66.30
2018-02-19T14:02:04.850Z,66.30
2018-02-19T14:04:32.981Z,65.90
2018-02-19T14:07:01.892Z,66.00
2018-02-19T14:09:30.041Z,66.00
2018-02-19T14:11:58.156Z,65.10
2018-02-19T14:14:26.296Z,65.50
2018-02-19T14:16:54.416Z,65.60
2018-02-19T14:19:23.325Z,65.20
2018-02-19T14:21:51.439Z,65.30
2018-02-19T14:24:19.646Z,64.90
2018-02-19T14:26:47.717Z,64.20
2018-02-19T14:29:16.684Z,65.00
2018-02-19T14:31:44.807Z,65.00
2018-02-19T14:34:12.950Z,65.20
2018-02-19T14:36:41.331Z,64.60
2018-02-19T14:39:11.578Z,65.40
2018-02-19T14:41:40.475Z,65.00
2018-02-19T14:44:08.701Z,65.00
2018-02-19T14:46:36.875Z,64.90
2018-02-19T14:49:05.030Z,65.00
2018-02-19T14:51:33.212Z,65.40
2018-02-19T14:54:01.328Z,64.70
2018-02-19T14:56:30.214Z,65.90
2018-02-19T14:58:58.354Z,65.40
2018-02-19T15:01:26.471Z,65.10
2018-02-19T15:03:54.685Z,65.00
2018-02-19T15:06:22.815Z,65.90
2018-02-19T15:08:52.094Z,65.10
2018-02-19T15:11:20.217Z,65.80
2018-02-19T15:13:48.365Z,66.40
2018-02-19T15:16:17.272Z,66.60
2018-02-19T15:18:45.401Z,66.60
2018-02-19T15:21:13.556Z,66.90
2018-02-19T15:23:41.712Z,66.50
2018-02-19T15:26:09.858Z,66.70
2018-02-19T15:28:38.749Z,68.70
2018-02-19T15:31:06.924Z,68.70
2018-02-19T15:33:35.810Z,70.20
2018-02-19T15:36:04.714Z,70.50
2018-02-19T15:38:32.849Z,70.50
2018-02-19T15:41:01.046Z,71.00
2018-02-19T15:43:29.970Z,71.50
2018-02-19T15:45:58.108Z,71.50
2018-02-19T15:48:26.996Z,72.10
2018-02-19T15:50:55.900Z,72.60
2018-02-19T15:53:24.785Z,72.20
2018-02-19T15:55:53.696Z,72.00
2018-02-19T15:58:22.388Z,72.00
2018-02-19T16:00:50.534Z,71.90
2018-02-19T16:03:19.415Z,72.30
2018-02-19T16:05:47.565Z,72.30
2018-02-19T16:08:16.833Z,71.40
2018-02-19T16:10:44.978Z,72.90
2018-02-19T16:13:13.864Z,73.80
2018-02-19T16:15:42.769Z,73.60
2018-02-19T16:18:11.904Z,73.60
2018-02-19T16:20:40.042Z,73.30
2018-02-19T16:23:08.919Z,75.00
2018-02-19T16:25:37.825Z,76.10
2018-02-19T16:28:05.942Z,75.40
2018-02-19T16:30:34.092Z,75.20
2018-02-19T16:33:02.221Z,75.40
2018-02-19T16:35:31.249Z,75.10
2018-02-19T16:38:00.433Z,75.10
2018-02-19T16:40:29.341Z,75.70
2018-02-19T16:42:57.456Z,75.70
2018-02-19T16:45:25.606Z,75.80
2018-02-19T16:47:54.279Z,75.40
2018-02-19T16:50:22.458Z,76.30
2018-02-19T16:52:50.593Z,75.80
2018-02-19T16:55:20.121Z,75.30
2018-02-19T16:57:48.237Z,75.50
2018-02-19T17:00:16.421Z,76.00
2018-02-19T17:02:44.549Z,76.00
2018-02-19T17:05:12.705Z,76.40
2018-02-19T17:07:41.611Z,76.40
2018-02-19T17:10:09.748Z,76.30
2018-02-19T17:12:37.940Z,76.30
2018-02-19T17:15:06.168Z,76.00
2018-02-19T17:17:34.802Z,76.30
2018-02-19T17:20:05.232Z,76.60
2018-02-19T17:22:34.522Z,76.60
2018-02-19T17:25:04.341Z,76.60
2018-02-19T17:27:34.241Z,78.10
2018-02-19T17:30:02.385Z,78.10
2018-02-19T17:32:31.103Z,78.20
2018-02-19T17:35:01.566Z,78.90
2018-02-19T17:37:29.703Z,78.80
2018-02-19T17:39:57.878Z,78.20
2018-02-19T17:42:27.994Z,78.20
2018-02-19T17:44:56.282Z,78.20
2018-02-19T17:47:25.380Z,77.90
2018-02-19T17:49:53.933Z,77.90
2018-02-19T17:52:22.070Z,78.20
2018-02-19T17:54:50.208Z,78.20
2018-02-19T17:57:18.321Z,78.20
2018-02-19T17:59:47.710Z,77.70
2018-02-19T18:02:16.873Z,78.40
2018-02-19T18:04:45.011Z,78.40
2018-02-19T18:07:14.967Z,77.90
2018-02-19T18:09:45.977Z,78.30
2018-02-19T18:12:14.120Z,78.50
2018-02-19T18:14:46.791Z,78.20
2018-02-19T18:17:15.013Z,78.80
2018-02-19T18:19:43.411Z,78.40
2018-02-19T18:22:11.960Z,79.10
2018-02-19T18:24:40.180Z,79.30
2018-02-19T18:27:08.340Z,80.00
2018-02-19T18:29:36.456Z,80.00
2018-02-19T18:32:04.661Z,79.00
2018-02-19T18:34:32.817Z,79.00
2018-02-19T18:37:00.962Z,78.40
2018-02-19T18:39:30.216Z,78.70
2018-02-19T18:41:58.616Z,78.20
2018-02-19T18:44:27.632Z,78.00
2018-02-19T18:46:56.718Z,78.90
2018-02-19T18:49:24.835Z,78.80
2018-02-19T18:51:52.967Z,78.80
2018-02-19T18:54:21.854Z,79.70
2018-02-19T18:56:49.995Z,79.00
2018-02-19T18:59:18.639Z,78.90
2018-02-19T19:01:46.793Z,79.10
2018-02-19T19:04:15.333Z,79.00
2018-02-19T19:06:43.477Z,78.70
2018-02-19T19:09:23.339Z,78.60
2018-02-19T19:11:51.485Z,78.90
2018-02-19T19:14:19.601Z,78.80
2018-02-19T19:16:47.738Z,78.80
2018-02-19T19:19:15.873Z,79.70
2018-02-19T19:21:44.428Z,80.30
2018-02-19T19:24:14.074Z,79.80
2018-02-19T19:26:43.381Z,80.30
2018-02-19T19:29:13.405Z,80.00
2018-02-19T19:31:43.392Z,79.90
2018-02-19T19:34:11.517Z,80.10
2018-02-19T19:36:41.238Z,80.00
2018-02-19T19:39:09.351Z,79.90
2018-02-19T19:41:38.367Z,79.80
2018-02-19T19:44:07.253Z,79.90
2018-02-19T19:46:36.096Z,79.90
2018-02-19T19:49:04.220Z,80.70
2018-02-19T19:51:33.141Z,80.40
2018-02-19T19:54:01.258Z,80.40
2018-02-19T19:56:29.402Z,80.40
2018-02-19T19:58:57.920Z,81.20
2018-02-19T20:01:26.524Z,81.50
2018-02-19T20:03:55.412Z,81.20
2018-02-19T20:06:24.323Z,81.00
2018-02-19T20:08:54.797Z,81.00
2018-02-19T20:11:22.929Z,81.00
2018-02-19T20:13:51.042Z,80.60
2018-02-19T20:16:19.184Z,80.30
2018-02-19T20:18:48.620Z,80.60
2018-02-19T20:21:16.765Z,80.90
2018-02-19T20:23:44.884Z,80.80
2018-02-19T20:26:13.041Z,80.90
2018-02-19T20:28:41.153Z,80.90
2018-02-19T20:31:10.060Z,80.20
2018-02-19T20:33:38.184Z,80.20
2018-02-19T20:36:06.321Z,80.20
2018-02-19T20:38:35.747Z,80.10
2018-02-19T20:41:04.022Z,80.40
2018-02-19T20:43:32.128Z,80.60
2018-02-19T20:46:00.241Z,81.70
2018-02-19T20:48:30.100Z,81.70
2018-02-19T20:50:59.520Z,81.50
2018-02-19T20:53:27.656Z,81.20
2018-02-19T20:55:55.780Z,81.00
2018-02-19T20:58:24.689Z,81.10
2018-02-19T21:00:52.800Z,81.10
2018-02-19T21:03:20.940Z,81.50
2018-02-19T21:05:49.061Z,82.00
2018-02-19T21:08:17.214Z,82.50
2018-02-19T21:10:45.833Z,82.70
2018-02-19T21:13:14.042Z,82.10
2018-02-19T21:15:42.178Z,81.70
2018-02-19T21:18:10.400Z,82.10
2018-02-19T21:20:40.469Z,82.90
2018-02-19T21:23:08.639Z,82.80
2018-02-19T21:25:36.753Z,82.30
2018-02-19T21:28:04.925Z,81.70
2018-02-19T21:30:35.256Z,81.90
2018-02-19T21:33:03.410Z,81.90
2018-02-19T21:35:32.296Z,82.80
2018-02-19T21:38:01.231Z,82.90
2018-02-19T21:40:30.599Z,82.90
2018-02-19T21:43:00.769Z,83.90
2018-02-19T21:45:29.675Z,83.40
2018-02-19T21:47:57.825Z,83.40
2018-02-19T21:50:25.955Z,83.00
2018-02-19T21:52:54.873Z,82.70
2018-02-19T21:55:22.992Z,82.70
2018-02-19T21:57:51.140Z,83.10
2018-02-19T22:00:19.264Z,83.90
2018-02-19T22:02:48.163Z,83.70
2018-02-19T22:05:16.300Z,83.70
2018-02-19T22:07:45.110Z,84.00
2018-02-19T22:10:13.241Z,83.80
2018-02-19T22:12:41.435Z,84.00
2018-02-19T22:15:11.117Z,85.40
2018-02-19T22:17:39.266Z,84.50
2018-02-19T22:20:07.376Z,83.60
2018-02-19T22:22:35.557Z,82.90
2018-02-19T22:25:03.680Z,83.00
2018-02-19T22:27:31.841Z,83.00
2018-02-19T22:30:01.855Z,82.60
2018-02-19T22:32:30.770Z,83.00
2018-02-19T22:34:58.879Z,83.00
2018-02-19T22:37:29.273Z,83.70
2018-02-19T22:39:57.392Z,83.70
2018-02-19T22:42:25.533Z,83.70
2018-02-19T22:44:53.659Z,83.10
2018-02-19T22:47:23.256Z,82.80
2018-02-19T22:49:51.821Z,82.90
2018-02-19T22:52:19.952Z,83.00
2018-02-19T22:54:48.064Z,83.30
2018-02-19T22:57:16.981Z,84.90
2018-02-19T22:59:45.089Z,84.90
2018-02-19T23:02:13.233Z,84.10
2018-02-19T23:04:42.120Z,82.80
2018-02-19T23:07:10.257Z,82.80
2018-02-19T23:09:38.350Z,82.50
2018-02-19T23:12:06.475Z,82.90
2018-02-19T23:14:34.583Z,82.90
2018-02-19T23:17:02.714Z,82.80
2018-02-19T23:19:32.186Z,82.80
2018-02-19T23:22:00.289Z,83.00
2018-02-19T23:24:28.413Z,83.50
2018-02-19T23:26:56.719Z,83.30
2018-02-19T23:29:27.033Z,83.50
2018-02-19T23:31:55.126Z,83.50
2018-02-19T23:34:24.023Z,83.10
2018-02-19T23:36:52.898Z,83.00
2018-02-19T23:39:21.023Z,83.10
2018-02-19T23:41:49.810Z,83.30
2018-02-19T23:44:18.019Z,83.30
2018-02-19T23:46:46.118Z,83.10
2018-02-19T23:49:15.015Z,82.80
2018-02-19T23:51:43.122Z,82.80
2018-02-19T23:54:19.007Z,83.00
2018-02-19T23:56:47.116Z,83.60
2018-02-19T23:59:15.243Z,83.70
